createdAt,value
2022-10-11T00:01:42.914Z,7.00
2022-10-11T00:04:09.526Z,7.00
2022-10-11T00:06:37.865Z,7.00
2022-10-11T00:09:06.004Z,6.90
2022-10-11T00:11:32.758Z,6.90
2022-10-11T00:13:59.291Z,6.90
2022-10-11T00:16:25.871Z,6.90
2022-10-11T00:18:52.451Z,6.90
2022-10-11T00:21:20.901Z,6.80
2022-10-11T00:23:48.135Z,6.80
2022-10-11T00:26:15.090Z,6.80
2022-10-11T00:28:42.125Z,6.80
2022-10-11T00:31:15.601Z,6.70
2022-10-11T00:33:42.222Z,6.70
2022-10-11T00:36:09.734Z,6.70
2022-10-11T00:38:36.366Z,6.70
2022-10-11T00:41:02.920Z,6.60
2022-10-11T00:43:31.498Z,6.60
2022-10-11T00:45:58.145Z,6.60
2022-10-11T00:48:32.650Z,6.70
2022-10-11T00:51:02.797Z,6.70
2022-10-11T00:53:32.453Z,6.70
2022-10-11T00:56:17.338Z,6.70
2022-10-11T00:58:44.369Z,6.70
2022-10-11T01:01:11.352Z,6.70
2022-10-11T01:03:39.697Z,6.70
2022-10-11T01:06:06.958Z,6.70
2022-10-11T01:08:34.540Z,6.70
2022-10-11T01:11:01.765Z,6.60
2022-10-11T01:13:56.298Z,6.60
2022-10-11T01:16:39.365Z,6.60
2022-10-11T01:19:08.606Z,6.50
2022-10-11T01:21:48.969Z,6.60
2022-10-11T01:24:37.784Z,6.50
2022-10-11T01:27:28.437Z,6.50
2022-10-11T01:30:16.129Z,6.40
2022-10-11T01:32:57.616Z,6.40
2022-10-11T01:35:30.380Z,6.40
2022-10-11T01:38:23.919Z,6.40
2022-10-11T01:40:58.565Z,6.30
2022-10-11T01:43:26.877Z,6.30
2022-10-11T01:45:57.885Z,6.30
2022-10-11T01:48:24.868Z,6.30
2022-10-11T01:50:56.792Z,6.30
2022-10-11T01:53:48.190Z,6.20
2022-10-11T01:56:23.654Z,6.20
2022-10-11T01:59:28.390Z,6.20
2022-10-11T02:02:21.426Z,6.20
2022-10-11T02:05:10.333Z,6.20
2022-10-11T02:07:49.209Z,6.20
2022-10-11T02:10:22.996Z,6.20
2022-10-11T02:12:58.057Z,6.10
2022-10-11T02:15:27.191Z,6.10
2022-10-11T02:17:56.731Z,6.10
2022-10-11T02:20:26.321Z,6.10
2022-10-11T02:22:58.929Z,6.10
2022-10-11T02:25:28.677Z,6.10
2022-10-11T02:27:59.317Z,6.00
2022-10-11T02:30:26.046Z,6.10
2022-10-11T02:32:54.385Z,6.10
2022-10-11T02:35:26.696Z,6.10
2022-10-11T02:38:05.512Z,6.10
2022-10-11T02:40:42.107Z,6.10
2022-10-11T02:43:24.964Z,6.10
2022-10-11T02:45:55.917Z,6.00
2022-10-11T02:48:24.076Z,6.00
2022-10-11T02:50:50.970Z,6.00
2022-10-11T02:53:17.818Z,6.00
2022-10-11T02:55:44.529Z,5.90
2022-10-11T02:58:11.067Z,5.90
2022-10-11T03:00:37.631Z,5.90
2022-10-11T03:03:04.296Z,5.80
2022-10-11T03:05:30.930Z,5.80
2022-10-11T03:07:57.576Z,5.80
2022-10-11T03:10:24.105Z,5.80
2022-10-11T03:12:50.653Z,5.80
2022-10-11T03:15:17.223Z,5.80
2022-10-11T03:17:43.768Z,5.80
2022-10-11T03:20:10.599Z,5.80
2022-10-11T03:22:37.295Z,5.80
2022-10-11T03:25:04.886Z,5.80
2022-10-11T03:27:33.144Z,5.70
2022-10-11T03:30:00.002Z,5.70
2022-10-11T03:32:26.813Z,5.70
2022-10-11T03:34:53.441Z,5.70
2022-10-11T03:37:20.161Z,5.70
2022-10-11T03:39:46.739Z,5.60
2022-10-11T03:42:14.012Z,5.60
2022-10-11T03:44:41.941Z,5.60
2022-10-11T03:47:08.873Z,5.60
2022-10-11T03:49:37.715Z,5.60
2022-10-11T03:52:07.961Z,5.60
2022-10-11T03:54:34.515Z,5.60
2022-10-11T03:57:01.066Z,5.60
2022-10-11T03:59:27.604Z,5.50
2022-10-11T04:01:54.196Z,5.50
2022-10-11T04:04:20.800Z,5.60
2022-10-11T04:06:47.384Z,5.50
2022-10-11T04:09:13.971Z,5.50
2022-10-11T04:11:40.517Z,5.50
2022-10-11T04:14:07.087Z,5.50
2022-10-11T04:16:35.095Z,5.50
2022-10-11T04:19:01.636Z,5.50
2022-10-11T04:21:28.196Z,5.50
2022-10-11T04:23:54.725Z,5.40
2022-10-11T04:26:21.433Z,5.40
2022-10-11T04:28:48.078Z,5.40
2022-10-11T04:31:14.901Z,5.40
2022-10-11T04:33:41.444Z,5.40
2022-10-11T04:36:08.634Z,5.40
2022-10-11T04:38:35.529Z,5.40
2022-10-11T04:41:11.424Z,5.30
2022-10-11T04:43:38.187Z,5.40
2022-10-11T04:46:06.106Z,5.40
2022-10-11T04:48:33.165Z,5.40
2022-10-11T04:50:59.780Z,5.40
2022-10-11T04:53:26.457Z,5.40
2022-10-11T04:56:01.549Z,5.40
2022-10-11T04:58:29.568Z,5.40
2022-10-11T05:00:56.824Z,5.30
2022-10-11T05:03:24.373Z,5.30
2022-10-11T05:05:51.292Z,5.30
2022-10-11T05:08:17.869Z,5.30
2022-10-11T05:11:01.206Z,5.30
2022-10-11T05:13:29.309Z,5.30
2022-10-11T05:15:56.702Z,5.30
2022-10-11T05:18:23.901Z,5.30
2022-10-11T05:21:02.878Z,5.20
2022-10-11T05:23:31.082Z,5.30
2022-10-11T05:25:58.270Z,5.30
2022-10-11T05:28:25.076Z,5.20
2022-10-11T05:30:51.815Z,5.20
2022-10-11T05:33:18.534Z,5.10
2022-10-11T05:35:45.162Z,5.30
2022-10-11T05:38:11.953Z,5.20
2022-10-11T05:40:39.130Z,5.20
2022-10-11T05:43:06.355Z,5.20
2022-10-11T05:45:36.626Z,5.20
2022-10-11T05:48:03.398Z,5.20
2022-10-11T05:50:30.218Z,5.20
2022-10-11T05:52:57.065Z,5.20
2022-10-11T05:55:24.065Z,5.30
2022-10-11T05:57:55.175Z,5.30
2022-10-11T06:00:22.600Z,5.40
2022-10-11T06:02:49.205Z,5.40
2022-10-11T06:05:16.201Z,5.40
2022-10-11T06:07:43.008Z,5.50
2022-10-11T06:10:10.017Z,5.60
2022-10-11T06:12:36.609Z,5.60
2022-10-11T06:15:04.466Z,5.70
2022-10-11T06:17:31.278Z,5.80
2022-10-11T06:19:57.916Z,5.80
2022-10-11T06:22:24.563Z,5.80
2022-10-11T06:24:51.098Z,5.90
2022-10-11T06:27:17.621Z,5.90
2022-10-11T06:29:44.225Z,6.00
2022-10-11T06:32:13.100Z,6.00
2022-10-11T06:34:39.645Z,6.10
2022-10-11T06:37:06.377Z,6.20
2022-10-11T06:39:33.019Z,6.20
2022-10-11T06:41:59.583Z,6.30
2022-10-11T06:44:26.745Z,6.40
2022-10-11T06:46:53.418Z,6.50
2022-10-11T06:49:23.343Z,6.60
2022-10-11T06:51:50.681Z,6.70
2022-10-11T06:54:17.256Z,6.80
2022-10-11T06:56:45.506Z,7.00
2022-10-11T06:59:13.304Z,7.10
2022-10-11T07:01:40.004Z,7.20
2022-10-11T07:04:06.965Z,7.40
2022-10-11T07:06:37.081Z,7.60
2022-10-11T07:09:04.524Z,7.70
2022-10-11T07:11:31.073Z,8.30
2022-10-11T07:14:00.374Z,9.70
2022-10-11T07:16:28.365Z,11.00
2022-10-11T07:19:00.378Z,12.10
2022-10-11T07:21:28.347Z,13.20
2022-10-11T07:23:54.941Z,14.30
2022-10-11T07:26:21.529Z,15.50
2022-10-11T07:28:48.238Z,16.40
2022-10-11T07:31:18.464Z,17.00
2022-10-11T07:33:45.466Z,17.30
2022-10-11T07:36:13.309Z,17.40
2022-10-11T07:38:41.610Z,18.10
2022-10-11T07:41:09.326Z,19.10
2022-10-11T07:43:36.999Z,19.70
2022-10-11T07:46:05.330Z,20.20
2022-10-11T07:48:33.960Z,20.70
2022-10-11T07:51:18.617Z,21.40
2022-10-11T07:53:47.438Z,22.40
2022-10-11T07:56:25.385Z,23.60
2022-10-11T07:58:54.394Z,24.40
2022-10-11T08:01:21.690Z,24.80
2022-10-11T08:03:48.945Z,24.80
2022-10-11T08:06:18.843Z,24.40
2022-10-11T08:08:46.044Z,24.50
2022-10-11T08:11:33.384Z,24.80
2022-10-11T08:14:00.575Z,25.20
2022-10-11T08:16:27.259Z,25.80
2022-10-11T08:18:56.613Z,25.90
2022-10-11T08:21:23.573Z,26.10
2022-10-11T08:23:50.157Z,26.60
2022-10-11T08:26:16.750Z,27.20
2022-10-11T08:28:43.437Z,27.40
2022-10-11T08:31:13.589Z,28.00
2022-10-11T08:33:40.836Z,28.60
2022-10-11T08:36:09.240Z,29.00
2022-10-11T08:38:36.956Z,28.80
2022-10-11T08:41:14.438Z,28.60
2022-10-11T08:43:59.640Z,28.50
2022-10-11T08:46:33.512Z,28.50
2022-10-11T08:49:01.748Z,28.60
2022-10-11T08:51:38.117Z,28.80
2022-10-11T08:54:16.237Z,29.00
2022-10-11T08:56:44.611Z,29.20
2022-10-11T08:59:11.135Z,29.20
2022-10-11T09:01:46.261Z,29.10
2022-10-11T09:04:15.118Z,28.70
2022-10-11T09:07:13.463Z,28.40
2022-10-11T09:09:52.806Z,28.50
2022-10-11T09:12:43.446Z,28.70
2022-10-11T09:15:10.118Z,28.60
2022-10-11T09:18:01.061Z,28.30
2022-10-11T09:20:40.146Z,28.40
2022-10-11T09:23:42.625Z,29.10
2022-10-11T09:26:26.205Z,29.50
2022-10-11T09:29:16.819Z,30.20
2022-10-11T09:31:53.934Z,30.50
2022-10-11T09:34:25.016Z,30.90
2022-10-11T09:37:24.468Z,31.60
2022-10-11T09:40:02.068Z,31.90
2022-10-11T09:42:28.653Z,31.60
2022-10-11T09:44:57.233Z,31.40
2022-10-11T09:47:29.499Z,31.80
2022-10-11T09:49:56.022Z,32.10
2022-10-11T09:52:24.145Z,32.50
2022-10-11T09:54:54.588Z,32.80
2022-10-11T09:57:28.944Z,33.40
2022-10-11T10:00:24.354Z,33.90
2022-10-11T10:02:53.785Z,34.00
2022-10-11T10:05:30.702Z,33.60
2022-10-11T10:08:08.084Z,33.50
2022-10-11T10:10:45.158Z,33.60
2022-10-11T10:13:44.400Z,33.40
2022-10-11T10:16:22.574Z,33.70
2022-10-11T10:18:54.056Z,34.00
2022-10-11T10:21:45.896Z,34.50
2022-10-11T10:24:18.764Z,35.30
2022-10-11T10:27:10.069Z,35.30
2022-10-11T10:29:37.429Z,34.90
2022-10-11T10:32:20.788Z,34.30
2022-10-11T10:35:00.861Z,34.00
2022-10-11T10:37:54.788Z,34.10
2022-10-11T10:40:35.845Z,34.20
2022-10-11T10:43:02.470Z,33.80
2022-10-11T10:45:40.796Z,33.50
2022-10-11T10:48:53.798Z,33.10
2022-10-11T10:51:41.803Z,33.00
2022-10-11T10:54:21.304Z,33.20
2022-10-11T10:57:03.090Z,33.80
2022-10-11T10:59:35.623Z,34.30
2022-10-11T11:02:35.475Z,34.70
2022-10-11T11:05:06.901Z,34.80
2022-10-11T11:07:45.694Z,35.10
2022-10-11T11:10:22.791Z,35.10
2022-10-11T11:13:22.572Z,34.40
2022-10-11T11:16:24.528Z,33.60
2022-10-11T11:19:03.096Z,33.60
2022-10-11T11:21:41.715Z,33.90
2022-10-11T11:24:20.085Z,33.80
2022-10-11T11:26:52.668Z,33.80
2022-10-11T11:29:45.723Z,33.40
2022-10-11T11:32:34.261Z,33.30
2022-10-11T11:35:10.618Z,33.40
2022-10-11T11:37:42.934Z,33.60
2022-10-11T11:40:17.088Z,33.90
2022-10-11T11:42:51.441Z,34.10
2022-10-11T11:45:26.781Z,34.00
2022-10-11T11:48:05.358Z,33.90
2022-10-11T11:50:39.925Z,34.00
2022-10-11T11:53:18.980Z,34.00
2022-10-11T11:56:12.233Z,33.90
2022-10-11T11:58:54.557Z,33.80
2022-10-11T12:01:44.500Z,33.20
2022-10-11T12:04:37.909Z,32.50
2022-10-11T12:07:17.616Z,31.50
2022-10-11T12:09:50.370Z,30.50
2022-10-11T12:12:36.072Z,30.00
2022-10-11T12:15:21.046Z,29.50
2022-10-11T12:17:56.382Z,29.40
2022-10-11T12:20:41.196Z,29.50
2022-10-11T12:23:29.664Z,29.40
2022-10-11T12:26:18.012Z,29.30
2022-10-11T12:28:59.337Z,29.50
2022-10-11T12:31:30.749Z,29.00
2022-10-11T12:34:33.742Z,28.60
2022-10-11T12:37:20.343Z,28.60
2022-10-11T12:39:50.555Z,28.60
2022-10-11T12:42:23.727Z,28.20
2022-10-11T12:45:30.133Z,27.00
2022-10-11T12:48:07.406Z,25.60
2022-10-11T12:50:45.010Z,25.30
2022-10-11T12:53:24.361Z,25.80
2022-10-11T12:56:20.991Z,26.40
2022-10-11T12:58:48.692Z,27.00
2022-10-11T13:01:19.201Z,27.30
2022-10-11T13:03:50.651Z,27.60
2022-10-11T13:06:24.850Z,27.70
2022-10-11T13:09:13.312Z,27.70
2022-10-11T13:11:47.365Z,27.60
2022-10-11T13:14:20.894Z,28.10
2022-10-11T13:17:03.323Z,28.30
2022-10-11T13:19:32.573Z,28.40
2022-10-11T13:22:03.485Z,28.40
2022-10-11T13:24:37.849Z,28.10
2022-10-11T13:27:06.328Z,27.10
2022-10-11T13:29:39.113Z,25.80
2022-10-11T13:32:16.228Z,24.60
2022-10-11T13:34:47.412Z,23.50
2022-10-11T13:37:20.645Z,22.40
2022-10-11T13:39:48.968Z,21.50
2022-10-11T13:42:17.392Z,20.80
2022-10-11T13:44:46.017Z,20.20
2022-10-11T13:47:18.454Z,19.70
2022-10-11T13:49:47.633Z,19.20
2022-10-11T13:52:20.420Z,18.90
2022-10-11T13:54:53.057Z,18.50
2022-10-11T13:57:21.881Z,18.20
2022-10-11T13:59:48.763Z,17.90
2022-10-11T14:02:21.002Z,17.70
2022-10-11T14:04:48.840Z,17.50
2022-10-11T14:07:36.188Z,17.40
2022-10-11T14:10:04.429Z,17.20
2022-10-11T14:12:40.666Z,17.00
2022-10-11T14:15:24.505Z,16.90
2022-10-11T14:17:51.396Z,16.80
2022-10-11T14:20:24.125Z,16.70
2022-10-11T14:22:52.063Z,16.70
2022-10-11T14:25:20.065Z,16.60
2022-10-11T14:27:47.254Z,16.50
2022-10-11T14:30:25.435Z,16.50
2022-10-11T14:32:55.186Z,16.40
2022-10-11T14:35:25.362Z,16.40
2022-10-11T14:37:52.261Z,16.30
2022-10-11T14:40:21.506Z,16.30
2022-10-11T14:42:48.121Z,16.20
2022-10-11T14:45:14.892Z,16.20
2022-10-11T14:47:43.157Z,16.10
2022-10-11T14:50:28.222Z,16.00
2022-10-11T14:52:55.316Z,16.00
2022-10-11T14:55:22.059Z,16.00
2022-10-11T14:57:48.674Z,15.90
2022-10-11T15:00:24.662Z,15.90
2022-10-11T15:02:52.771Z,15.80
2022-10-11T15:05:20.443Z,15.70
2022-10-11T15:07:47.256Z,15.70
2022-10-11T15:10:20.490Z,15.60
2022-10-11T15:12:47.535Z,15.50
2022-10-11T15:15:19.885Z,15.50
2022-10-11T15:17:57.480Z,15.40
2022-10-11T15:20:28.428Z,15.30
2022-10-11T15:22:56.162Z,15.30
2022-10-11T15:25:23.473Z,15.30
2022-10-11T15:27:50.693Z,15.20
2022-10-11T15:30:41.473Z,15.10
2022-10-11T15:33:08.419Z,15.00
2022-10-11T15:35:34.981Z,14.90
2022-10-11T15:38:01.542Z,14.90
2022-10-11T15:40:34.258Z,14.80
2022-10-11T15:43:00.908Z,14.80
2022-10-11T15:45:28.685Z,14.70
2022-10-11T15:47:55.630Z,14.70
2022-10-11T15:50:34.893Z,14.60
2022-10-11T15:53:03.941Z,14.60
2022-10-11T15:55:31.490Z,14.60
2022-10-11T15:57:58.817Z,14.60
2022-10-11T16:00:26.549Z,14.50
2022-10-11T16:02:54.099Z,14.50
2022-10-11T16:05:25.407Z,14.40
2022-10-11T16:07:53.092Z,14.40
2022-10-11T16:10:20.526Z,14.40
2022-10-11T16:12:48.055Z,14.30
2022-10-11T16:15:15.457Z,14.30
2022-10-11T16:17:42.044Z,14.30
2022-10-11T16:20:09.145Z,14.30
2022-10-11T16:22:35.961Z,14.20
2022-10-11T16:25:03.328Z,14.20
2022-10-11T16:27:30.165Z,14.10
2022-10-11T16:29:56.856Z,14.10
2022-10-11T16:32:24.200Z,14.00
2022-10-11T16:34:50.837Z,14.00
2022-10-11T16:37:17.389Z,13.90
2022-10-11T16:39:44.062Z,13.90
2022-10-11T16:42:10.708Z,13.80
2022-10-11T16:44:38.806Z,13.70
2022-10-11T16:47:06.262Z,13.70
2022-10-11T16:49:33.190Z,13.60
2022-10-11T16:52:02.169Z,13.50
2022-10-11T16:54:30.193Z,13.40
2022-10-11T16:56:57.892Z,13.40
2022-10-11T16:59:24.562Z,13.20
2022-10-11T17:01:51.369Z,13.20
2022-10-11T17:04:18.029Z,13.10
2022-10-11T17:06:44.801Z,13.10
2022-10-11T17:09:11.494Z,13.00
2022-10-11T17:11:38.298Z,12.90
2022-10-11T17:14:05.916Z,12.90
2022-10-11T17:16:32.619Z,12.80
2022-10-11T17:18:59.215Z,12.80
2022-10-11T17:21:25.797Z,12.70
2022-10-11T17:23:52.481Z,12.60
2022-10-11T17:26:26.101Z,12.60
2022-10-11T17:28:57.682Z,12.50
2022-10-11T17:31:24.658Z,12.40
2022-10-11T17:33:51.289Z,12.40
2022-10-11T17:36:34.658Z,12.30
2022-10-11T17:39:03.924Z,12.20
2022-10-11T17:41:32.256Z,12.10
2022-10-11T17:43:59.541Z,12.10
2022-10-11T17:46:27.539Z,12.00
2022-10-11T17:48:55.476Z,11.90
2022-10-11T17:51:22.052Z,11.90
2022-10-11T17:53:50.783Z,11.80
2022-10-11T17:56:28.194Z,11.80
2022-10-11T17:58:57.536Z,11.70
2022-10-11T18:01:26.618Z,11.70
2022-10-11T18:03:57.555Z,11.60
2022-10-11T18:06:28.665Z,11.60
2022-10-11T18:08:57.195Z,11.60
2022-10-11T18:11:23.921Z,11.50
2022-10-11T18:13:52.419Z,11.50
2022-10-11T18:16:22.037Z,11.40
2022-10-11T18:18:48.948Z,11.40
2022-10-11T18:21:16.074Z,11.40
2022-10-11T18:23:42.707Z,11.40
2022-10-11T18:26:17.915Z,11.40
2022-10-11T18:28:45.391Z,11.40
2022-10-11T18:31:20.044Z,11.40
2022-10-11T18:33:47.139Z,11.40
2022-10-11T18:36:15.614Z,11.40
2022-10-11T18:38:46.196Z,11.40
2022-10-11T18:41:14.609Z,11.40
2022-10-11T18:43:41.772Z,11.40
2022-10-11T18:46:13.662Z,11.40
2022-10-11T18:48:44.853Z,11.40
2022-10-11T18:51:15.705Z,11.50
2022-10-11T18:53:42.633Z,11.40
2022-10-11T18:56:10.714Z,11.50
2022-10-11T18:58:38.793Z,11.50
2022-10-11T19:01:15.793Z,11.50
2022-10-11T19:03:43.068Z,11.50
2022-10-11T19:06:16.961Z,11.50
2022-10-11T19:08:45.665Z,11.60
2022-10-11T19:11:13.470Z,11.60
2022-10-11T19:13:40.472Z,11.60
2022-10-11T19:16:17.186Z,11.60
2022-10-11T19:18:44.624Z,11.60
2022-10-11T19:21:12.773Z,11.60
2022-10-11T19:23:41.501Z,11.70
2022-10-11T19:26:12.844Z,11.70
2022-10-11T19:28:39.473Z,11.70
2022-10-11T19:31:09.279Z,11.70
2022-10-11T19:33:36.680Z,11.70
2022-10-11T19:36:05.638Z,11.70
2022-10-11T19:38:34.634Z,11.80
2022-10-11T19:41:02.956Z,11.80
2022-10-11T19:43:29.622Z,11.80
2022-10-11T19:46:08.221Z,11.80
2022-10-11T19:48:38.976Z,11.80
2022-10-11T19:51:08.569Z,11.80
2022-10-11T19:53:35.512Z,11.80
2022-10-11T19:56:04.767Z,11.80
2022-10-11T19:58:31.652Z,11.80
2022-10-11T20:01:06.630Z,11.80
2022-10-11T20:03:34.293Z,11.80
2022-10-11T20:06:02.467Z,11.70
2022-10-11T20:08:31.199Z,11.70
2022-10-11T20:10:59.157Z,11.70
2022-10-11T20:13:30.049Z,11.70
2022-10-11T20:16:13.101Z,11.70
2022-10-11T20:18:40.004Z,11.60
2022-10-11T20:21:11.899Z,11.50
2022-10-11T20:23:40.182Z,11.50
2022-10-11T20:26:10.834Z,11.40
2022-10-11T20:28:38.214Z,11.30
2022-10-11T20:31:12.817Z,11.20
2022-10-11T20:33:39.605Z,11.20
2022-10-11T20:36:08.737Z,11.10
2022-10-11T20:38:38.222Z,11.00
2022-10-11T20:41:12.885Z,11.00
2022-10-11T20:43:42.429Z,10.90
2022-10-11T20:46:11.584Z,10.80
2022-10-11T20:48:40.534Z,10.80
2022-10-11T20:51:08.960Z,10.70
2022-10-11T20:53:37.123Z,10.70
2022-10-11T20:56:13.713Z,10.60
2022-10-11T20:58:40.837Z,10.60
2022-10-11T21:01:16.243Z,10.50
2022-10-11T21:03:43.592Z,10.50
2022-10-11T21:06:11.188Z,10.40
2022-10-11T21:08:38.574Z,10.40
2022-10-11T21:11:05.428Z,10.30
2022-10-11T21:13:32.021Z,10.30
2022-10-11T21:16:07.079Z,10.30
2022-10-11T21:18:34.056Z,10.20
2022-10-11T21:21:12.397Z,10.10
2022-10-11T21:23:39.911Z,10.10
2022-10-11T21:26:10.060Z,10.00
2022-10-11T21:28:36.744Z,10.00
2022-10-11T21:31:12.073Z,9.90
2022-10-11T21:33:39.948Z,9.90
2022-10-11T21:36:09.096Z,9.80
2022-10-11T21:38:36.394Z,9.80
2022-10-11T21:41:05.010Z,9.70
2022-10-11T21:43:31.690Z,9.70
2022-10-11T21:45:58.266Z,9.60
2022-10-11T21:48:24.864Z,9.60
2022-10-11T21:50:54.895Z,9.60
2022-10-11T21:53:21.483Z,9.60
2022-10-11T21:55:48.020Z,9.50
2022-10-11T21:58:14.551Z,9.50
2022-10-11T22:00:41.090Z,9.40
2022-10-11T22:03:07.982Z,9.40
2022-10-11T22:05:34.565Z,9.30
2022-10-11T22:08:01.113Z,9.30
2022-10-11T22:10:27.657Z,9.30
2022-10-11T22:12:54.180Z,9.30
2022-10-11T22:15:20.713Z,9.20
2022-10-11T22:17:47.437Z,9.20
2022-10-11T22:20:14.405Z,9.20
2022-10-11T22:22:40.949Z,9.10
2022-10-11T22:25:08.143Z,9.10
2022-10-11T22:27:34.672Z,9.10
2022-10-11T22:30:01.344Z,9.00
2022-10-11T22:32:27.912Z,9.00
2022-10-11T22:34:54.629Z,8.90
2022-10-11T22:37:21.188Z,8.90
2022-10-11T22:39:47.725Z,8.90
2022-10-11T22:42:14.274Z,8.90
2022-10-11T22:44:40.824Z,8.80
2022-10-11T22:47:07.473Z,8.80
2022-10-11T22:49:34.032Z,8.80
2022-10-11T22:52:00.572Z,8.70
2022-10-11T22:54:27.192Z,8.70
2022-10-11T22:56:53.920Z,8.70
2022-10-11T22:59:20.454Z,8.60
2022-10-11T23:01:47.056Z,8.60
2022-10-11T23:04:13.625Z,8.60
2022-10-11T23:06:40.218Z,8.60
2022-10-11T23:09:07.066Z,8.50
2022-10-11T23:11:33.689Z,8.50
2022-10-11T23:14:00.358Z,8.50
2022-10-11T23:16:26.889Z,8.50
2022-10-11T23:18:54.333Z,8.50
2022-10-11T23:21:21.141Z,8.50
2022-10-11T23:23:47.806Z,8.50
2022-10-11T23:26:16.076Z,8.40
2022-10-11T23:28:43.510Z,8.40
2022-10-11T23:31:12.708Z,8.40
2022-10-11T23:33:39.458Z,8.40
2022-10-11T23:36:06.692Z,8.40
2022-10-11T23:38:33.228Z,8.40
2022-10-11T23:40:59.819Z,8.40
2022-10-11T23:43:26.344Z,8.40
2022-10-11T23:45:54.803Z,8.40
2022-10-11T23:48:21.578Z,8.30
2022-10-11T23:50:48.217Z,8.30
2022-10-11T23:53:14.809Z,8.30
2022-10-11T23:55:42.240Z,8.20
2022-10-11T23:58:08.790Z,8.20
